Terminal Aerodrome Forecast
Issued by NWS

Current Version | Previous Version | Text Only | Print | Product List | Glossary Off
Versions: 1 2 3 4 5 6 7 8 9 10 11 12 13 14 15 16 17 18 19 20 21 22 23 24 25 26

416
FTUS44 KOHX 201720
TAFCKV
TAF
KCKV 201720Z 2018/2118 17005KT P6SM SCT250
     FM210000 00000KT P6SM SCT250
     FM210700 00000KT 4SM BR SKC
     FM210900 00000KT 2SM BR SKC
     FM211300 00000KT P6SM SKC=

USA.gov is the U.S. government's official web portal to all federal, state and local government web resources and services.